sensor_id;sensor_type;location;lat;lon;timestamp;P1;durP1;ratioP1;P2;durP2;ratioP2
10056;SDS011;5068;51.286;7.518;2023-02-27T00:01:26;2.15;;;0.85;;
10056;SDS011;5068;51.286;7.518;2023-02-27T00:03:01;1.85;;;0.60;;
10056;SDS011;5068;51.286;7.518;2023-02-27T00:04:35;1.63;;;0.68;;
10056;SDS011;5068;51.286;7.518;2023-02-27T00:06:08;2.65;;;1.10;;
10056;SDS011;5068;51.286;7.518;2023-02-27T00:07:41;1.58;;;0.80;;
10056;SDS011;5068;51.286;7.518;2023-02-27T00:09:13;2.08;;;0.98;;
10056;SDS011;5068;51.286;7.518;2023-02-27T00:10:47;1.33;;;0.63;;
10056;SDS011;5068;51.286;7.518;2023-02-27T00:12:20;2.03;;;0.80;;
10056;SDS011;5068;51.286;7.518;2023-02-27T00:13:53;1.92;;;0.95;;
10056;SDS011;5068;51.286;7.518;2023-02-27T00:15:27;2.47;;;0.73;;
10056;SDS011;5068;51.286;7.518;2023-02-27T00:17:03;2.30;;;0.70;;
10056;SDS011;5068;51.286;7.518;2023-02-27T00:18:39;3.08;;;0.80;;
10056;SDS011;5068;51.286;7.518;2023-02-27T00:20:13;3.15;;;1.52;;
10056;SDS011;5068;51.286;7.518;2023-02-27T00:21:49;1.35;;;0.60;;
10056;SDS011;5068;51.286;7.518;2023-02-27T00:23:23;1.60;;;0.68;;
10056;SDS011;5068;51.286;7.518;2023-02-27T00:24:56;1.98;;;0.50;;
10056;SDS011;5068;51.286;7.518;2023-02-27T00:26:29;2.97;;;0.80;;
10056;SDS011;5068;51.286;7.518;2023-02-27T00:28:03;3.03;;;0.95;;
10056;SDS011;5068;51.286;7.518;2023-02-27T00:29:36;1.75;;;0.57;;
10056;SDS011;5068;51.286;7.518;2023-02-27T00:31:09;2.05;;;0.70;;
10056;SDS011;5068;51.286;7.518;2023-02-27T00:32:44;2.10;;;0.70;;
10056;SDS011;5068;51.286;7.518;2023-02-27T00:34:16;2.10;;;0.70;;
10056;SDS011;5068;51.286;7.518;2023-02-27T00:35:54;1.17;;;0.70;;
10056;SDS011;5068;51.286;7.518;2023-02-27T00:37:28;1.60;;;0.63;;
10056;SDS011;5068;51.286;7.518;2023-02-27T00:39:01;1.70;;;0.75;;
10056;SDS011;5068;51.286;7.518;2023-02-27T00:40:35;1.92;;;0.60;;
10056;SDS011;5068;51.286;7.518;2023-02-27T00:42:08;3.17;;;0.82;;
10056;SDS011;5068;51.286;7.518;2023-02-27T00:43:41;2.42;;;0.80;;
10056;SDS011;5068;51.286;7.518;2023-02-27T00:45:15;3.42;;;0.68;;
10056;SDS011;5068;51.286;7.518;2023-02-27T00:46:51;2.08;;;0.75;;
10056;SDS011;5068;51.286;7.518;2023-02-27T00:48:26;1.50;;;0.70;;
10056;SDS011;5068;51.286;7.518;2023-02-27T00:49:59;2.17;;;0.77;;
10056;SDS011;5068;51.286;7.518;2023-02-27T00:51:33;1.83;;;0.63;;
10056;SDS011;5068;51.286;7.518;2023-02-27T00:53:06;2.10;;;0.60;;
10056;SDS011;5068;51.286;7.518;2023-02-27T00:54:40;2.42;;;0.80;;
10056;SDS011;5068;51.286;7.518;2023-02-27T00:56:13;1.85;;;0.93;;
10056;SDS011;5068;51.286;7.518;2023-02-27T00:57:48;1.48;;;0.70;;
10056;SDS011;5068;51.286;7.518;2023-02-27T00:59:21;1.73;;;0.85;;
10056;SDS011;5068;51.286;7.518;2023-02-27T01:00:57;1.33;;;0.57;;
10056;SDS011;5068;51.286;7.518;2023-02-27T01:02:32;1.90;;;0.57;;
10056;SDS011;5068;51.286;7.518;2023-02-27T01:04:07;2.17;;;0.80;;
10056;SDS011;5068;51.286;7.518;2023-02-27T01:05:40;1.58;;;0.60;;
10056;SDS011;5068;51.286;7.518;2023-02-27T01:07:13;1.33;;;0.50;;
10056;SDS011;5068;51.286;7.518;2023-02-27T01:08:45;1.65;;;0.80;;
10056;SDS011;5068;51.286;7.518;2023-02-27T01:10:19;1.08;;;0.60;;
10056;SDS011;5068;51.286;7.518;2023-02-27T01:11:52;1.50;;;0.73;;
10056;SDS011;5068;51.286;7.518;2023-02-27T01:13:27;1.55;;;0.77;;
10056;SDS011;5068;51.286;7.518;2023-02-27T01:15:02;2.15;;;1.00;;
10056;SDS011;5068;51.286;7.518;2023-02-27T01:18:11;1.92;;;0.82;;
10056;SDS011;5068;51.286;7.518;2023-02-27T01:19:46;4.07;;;0.85;;
10056;SDS011;5068;51.286;7.518;2023-02-27T01:21:19;2.10;;;0.80;;
10056;SDS011;5068;51.286;7.518;2023-02-27T01:22:53;1.50;;;0.70;;
10056;SDS011;5068;51.286;7.518;2023-02-27T01:24:26;1.83;;;0.75;;
10056;SDS011;5068;51.286;7.518;2023-02-27T01:25:59;1.20;;;0.60;;
10056;SDS011;5068;51.286;7.518;2023-02-27T01:27:32;1.25;;;0.70;;
10056;SDS011;5068;51.286;7.518;2023-02-27T01:29:08;1.10;;;0.60;;
10056;SDS011;5068;51.286;7.518;2023-02-27T01:30:42;1.55;;;0.77;;
10056;SDS011;5068;51.286;7.518;2023-02-27T01:32:17;1.35;;;0.65;;
10056;SDS011;5068;51.286;7.518;2023-02-27T01:33:51;2.08;;;0.70;;
10056;SDS011;5068;51.286;7.518;2023-02-27T01:35:25;2.08;;;0.80;;
10056;SDS011;5068;51.286;7.518;2023-02-27T01:36:58;1.75;;;0.73;;
10056;SDS011;5068;51.286;7.518;2023-02-27T01:38:31;2.38;;;0.68;;
10056;SDS011;5068;51.286;7.518;2023-02-27T01:40:04;2.95;;;0.68;;
10056;SDS011;5068;51.286;7.518;2023-02-27T01:41:39;1.38;;;0.60;;
10056;SDS011;5068;51.286;7.518;2023-02-27T01:43:13;2.55;;;0.88;;
10056;SDS011;5068;51.286;7.518;2023-02-27T01:45:02;1.80;;;0.75;;
10056;SDS011;5068;51.286;7.518;2023-02-27T01:46:57;1.48;;;0.70;;
10056;SDS011;5068;51.286;7.518;2023-02-27T01:48:31;2.90;;;0.70;;
10056;SDS011;5068;51.286;7.518;2023-02-27T01:50:09;1.75;;;0.80;;
10056;SDS011;5068;51.286;7.518;2023-02-27T01:51:45;1.00;;;0.57;;
10056;SDS011;5068;51.286;7.518;2023-02-27T01:53:25;4.32;;;1.08;;
10056;SDS011;5068;51.286;7.518;2023-02-27T01:55:00;2.03;;;0.70;;
10056;SDS011;5068;51.286;7.518;2023-02-27T01:56:35;2.78;;;0.85;;
10056;SDS011;5068;51.286;7.518;2023-02-27T01:58:10;2.90;;;0.73;;
10056;SDS011;5068;51.286;7.518;2023-02-27T01:59:45;1.50;;;0.80;;
10056;SDS011;5068;51.286;7.518;2023-02-27T02:01:19;1.30;;;0.77;;
10056;SDS011;5068;51.286;7.518;2023-02-27T02:02:58;2.40;;;0.90;;
10056;SDS011;5068;51.286;7.518;2023-02-27T02:04:39;1.45;;;0.70;;
10056;SDS011;5068;51.286;7.518;2023-02-27T02:06:14;1.17;;;0.55;;
10056;SDS011;5068;51.286;7.518;2023-02-27T02:07:50;1.30;;;0.70;;
10056;SDS011;5068;51.286;7.518;2023-02-27T02:09:25;2.53;;;0.70;;
10056;SDS011;5068;51.286;7.518;2023-02-27T02:11:01;2.38;;;0.75;;
10056;SDS011;5068;51.286;7.518;2023-02-27T02:12:38;2.08;;;0.98;;
10056;SDS011;5068;51.286;7.518;2023-02-27T02:14:12;1.85;;;0.68;;
10056;SDS011;5068;51.286;7.518;2023-02-27T02:15:51;1.30;;;0.70;;
10056;SDS011;5068;51.286;7.518;2023-02-27T02:17:45;1.55;;;0.70;;
10056;SDS011;5068;51.286;7.518;2023-02-27T02:19:47;3.95;;;1.00;;
10056;SDS011;5068;51.286;7.518;2023-02-27T02:24:30;1.17;;;0.60;;
10056;SDS011;5068;51.286;7.518;2023-02-27T02:26:38;2.47;;;1.00;;
10056;SDS011;5068;51.286;7.518;2023-02-27T02:28:48;2.92;;;1.35;;
10056;SDS011;5068;51.286;7.518;2023-02-27T02:31:16;2.95;;;0.90;;
10056;SDS011;5068;51.286;7.518;2023-02-27T02:33:26;1.90;;;0.88;;
10056;SDS011;5068;51.286;7.518;2023-02-27T02:35:46;2.47;;;0.90;;
10056;SDS011;5068;51.286;7.518;2023-02-27T02:37:53;1.48;;;0.75;;
10056;SDS011;5068;51.286;7.518;2023-02-27T02:42:10;2.35;;;1.10;;
10056;SDS011;5068;51.286;7.518;2023-02-27T02:43:57;2.05;;;0.95;;
10056;SDS011;5068;51.286;7.518;2023-02-27T02:45:40;1.27;;;0.60;;
10056;SDS011;5068;51.286;7.518;2023-02-27T02:47:22;3.28;;;0.80;;
10056;SDS011;5068;51.286;7.518;2023-02-27T02:49:09;2.08;;;0.90;;
10056;SDS011;5068;51.286;7.518;2023-02-27T02:50:55;2.70;;;1.13;;
10056;SDS011;5068;51.286;7.518;2023-02-27T02:52:41;2.25;;;0.82;;
10056;SDS011;5068;51.286;7.518;2023-02-27T02:54:30;1.40;;;0.90;;
10056;SDS011;5068;51.286;7.518;2023-02-27T02:56:15;2.63;;;1.02;;
10056;SDS011;5068;51.286;7.518;2023-02-27T02:57:56;2.25;;;0.93;;
10056;SDS011;5068;51.286;7.518;2023-02-27T02:59:40;2.15;;;0.80;;
10056;SDS011;5068;51.286;7.518;2023-02-27T03:01:21;1.60;;;0.80;;
10056;SDS011;5068;51.286;7.518;2023-02-27T03:03:02;2.30;;;0.75;;
10056;SDS011;5068;51.286;7.518;2023-02-27T03:04:45;2.05;;;0.90;;
10056;SDS011;5068;51.286;7.518;2023-02-27T03:06:26;2.13;;;0.82;;
10056;SDS011;5068;51.286;7.518;2023-02-27T03:08:04;1.83;;;1.00;;
10056;SDS011;5068;51.286;7.518;2023-02-27T03:09:44;1.83;;;0.80;;
10056;SDS011;5068;51.286;7.518;2023-02-27T03:11:27;2.20;;;0.98;;
10056;SDS011;5068;51.286;7.518;2023-02-27T03:13:08;1.98;;;0.90;;
10056;SDS011;5068;51.286;7.518;2023-02-27T03:14:50;2.13;;;1.00;;
10056;SDS011;5068;51.286;7.518;2023-02-27T03:16:28;2.20;;;0.90;;
10056;SDS011;5068;51.286;7.518;2023-02-27T03:18:08;1.45;;;0.90;;
10056;SDS011;5068;51.286;7.518;2023-02-27T03:19:51;1.70;;;0.80;;
10056;SDS011;5068;51.286;7.518;2023-02-27T03:21:30;1.98;;;1.00;;
10056;SDS011;5068;51.286;7.518;2023-02-27T03:23:12;2.83;;;0.95;;
10056;SDS011;5068;51.286;7.518;2023-02-27T03:24:51;1.52;;;0.95;;
10056;SDS011;5068;51.286;7.518;2023-02-27T03:26:31;2.38;;;1.00;;
10056;SDS011;5068;51.286;7.518;2023-02-27T03:28:10;3.05;;;0.95;;
10056;SDS011;5068;51.286;7.518;2023-02-27T03:29:54;2.08;;;0.77;;
10056;SDS011;5068;51.286;7.518;2023-02-27T03:31:36;2.17;;;1.00;;
10056;SDS011;5068;51.286;7.518;2023-02-27T03:33:18;1.83;;;1.05;;
10056;SDS011;5068;51.286;7.518;2023-02-27T03:34:58;2.60;;;0.90;;
10056;SDS011;5068;51.286;7.518;2023-02-27T03:36:35;2.22;;;1.02;;
10056;SDS011;5068;51.286;7.518;2023-02-27T03:38:19;1.85;;;0.88;;
10056;SDS011;5068;51.286;7.518;2023-02-27T03:40:05;1.83;;;1.00;;
10056;SDS011;5068;51.286;7.518;2023-02-27T03:41:53;2.15;;;1.10;;
10056;SDS011;5068;51.286;7.518;2023-02-27T03:43:53;1.65;;;0.90;;
10056;SDS011;5068;51.286;7.518;2023-02-27T03:45:37;2.85;;;0.88;;
10056;SDS011;5068;51.286;7.518;2023-02-27T03:47:22;3.80;;;1.15;;
10056;SDS011;5068;51.286;7.518;2023-02-27T03:48:56;1.73;;;0.82;;
10056;SDS011;5068;51.286;7.518;2023-02-27T03:50:29;1.40;;;0.70;;
10056;SDS011;5068;51.286;7.518;2023-02-27T03:52:01;2.05;;;1.00;;
10056;SDS011;5068;51.286;7.518;2023-02-27T03:53:36;2.28;;;1.15;;
10056;SDS011;5068;51.286;7.518;2023-02-27T03:55:15;1.80;;;1.10;;
10056;SDS011;5068;51.286;7.518;2023-02-27T03:56:55;2.20;;;0.80;;
10056;SDS011;5068;51.286;7.518;2023-02-27T03:58:32;2.55;;;1.13;;
10056;SDS011;5068;51.286;7.518;2023-02-27T04:00:08;2.67;;;0.82;;
10056;SDS011;5068;51.286;7.518;2023-02-27T04:01:50;2.08;;;0.80;;
10056;SDS011;5068;51.286;7.518;2023-02-27T04:03:27;2.63;;;1.27;;
10056;SDS011;5068;51.286;7.518;2023-02-27T04:05:05;2.33;;;1.02;;
10056;SDS011;5068;51.286;7.518;2023-02-27T04:06:46;4.68;;;1.27;;
10056;SDS011;5068;51.286;7.518;2023-02-27T04:08:45;3.70;;;1.10;;
10056;SDS011;5068;51.286;7.518;2023-02-27T04:10:39;1.50;;;0.80;;
10056;SDS011;5068;51.286;7.518;2023-02-27T04:12:39;3.05;;;1.20;;
10056;SDS011;5068;51.286;7.518;2023-02-27T04:14:55;2.38;;;1.15;;
10056;SDS011;5068;51.286;7.518;2023-02-27T04:16:59;2.10;;;0.93;;
10056;SDS011;5068;51.286;7.518;2023-02-27T04:18:54;2.90;;;1.10;;
10056;SDS011;5068;51.286;7.518;2023-02-27T04:20:47;1.50;;;1.00;;
10056;SDS011;5068;51.286;7.518;2023-02-27T04:22:30;1.73;;;0.80;;
10056;SDS011;5068;51.286;7.518;2023-02-27T04:24:10;1.25;;;0.80;;
10056;SDS011;5068;51.286;7.518;2023-02-27T04:25:57;2.35;;;1.05;;
10056;SDS011;5068;51.286;7.518;2023-02-27T04:27:46;4.05;;;1.17;;
10056;SDS011;5068;51.286;7.518;2023-02-27T04:29:33;3.13;;;1.05;;
10056;SDS011;5068;51.286;7.518;2023-02-27T04:31:20;2.65;;;1.13;;
10056;SDS011;5068;51.286;7.518;2023-02-27T04:33:03;2.20;;;1.10;;
10056;SDS011;5068;51.286;7.518;2023-02-27T04:34:44;4.30;;;1.25;;
10056;SDS011;5068;51.286;7.518;2023-02-27T04:36:24;2.95;;;0.90;;
10056;SDS011;5068;51.286;7.518;2023-02-27T04:38:04;2.58;;;1.02;;
10056;SDS011;5068;51.286;7.518;2023-02-27T04:39:49;2.95;;;1.10;;
10056;SDS011;5068;51.286;7.518;2023-02-27T04:41:29;1.80;;;1.10;;
10056;SDS011;5068;51.286;7.518;2023-02-27T04:43:10;2.35;;;1.17;;
10056;SDS011;5068;51.286;7.518;2023-02-27T04:44:46;3.28;;;1.10;;
10056;SDS011;5068;51.286;7.518;2023-02-27T04:46:25;2.20;;;0.85;;
10056;SDS011;5068;51.286;7.518;2023-02-27T04:48:02;1.35;;;0.90;;
10056;SDS011;5068;51.286;7.518;2023-02-27T04:49:43;2.15;;;0.90;;
10056;SDS011;5068;51.286;7.518;2023-02-27T04:51:23;3.90;;;1.10;;
10056;SDS011;5068;51.286;7.518;2023-02-27T04:53:06;2.15;;;1.02;;
10056;SDS011;5068;51.286;7.518;2023-02-27T04:54:48;1.52;;;0.82;;
10056;SDS011;5068;51.286;7.518;2023-02-27T04:56:28;1.98;;;0.98;;
10056;SDS011;5068;51.286;7.518;2023-02-27T04:58:06;2.13;;;1.08;;
10056;SDS011;5068;51.286;7.518;2023-02-27T04:59:46;3.42;;;1.27;;
10056;SDS011;5068;51.286;7.518;2023-02-27T05:01:27;5.50;;;1.45;;
10056;SDS011;5068;51.286;7.518;2023-02-27T05:03:11;2.83;;;1.27;;
10056;SDS011;5068;51.286;7.518;2023-02-27T05:04:48;2.38;;;1.10;;
10056;SDS011;5068;51.286;7.518;2023-02-27T05:06:26;2.92;;;1.35;;
10056;SDS011;5068;51.286;7.518;2023-02-27T05:08:03;2.05;;;1.27;;
10056;SDS011;5068;51.286;7.518;2023-02-27T05:09:42;3.47;;;1.60;;
10056;SDS011;5068;51.286;7.518;2023-02-27T05:11:24;2.13;;;0.98;;
10056;SDS011;5068;51.286;7.518;2023-02-27T05:13:04;2.95;;;1.10;;
10056;SDS011;5068;51.286;7.518;2023-02-27T05:14:45;1.60;;;0.98;;
10056;SDS011;5068;51.286;7.518;2023-02-27T05:16:26;1.92;;;0.93;;
10056;SDS011;5068;51.286;7.518;2023-02-27T05:18:07;3.42;;;1.58;;
10056;SDS011;5068;51.286;7.518;2023-02-27T05:19:43;2.55;;;0.82;;
10056;SDS011;5068;51.286;7.518;2023-02-27T05:21:20;2.10;;;0.90;;
10056;SDS011;5068;51.286;7.518;2023-02-27T05:23:03;2.05;;;0.90;;
10056;SDS011;5068;51.286;7.518;2023-02-27T05:24:48;2.30;;;1.10;;
10056;SDS011;5068;51.286;7.518;2023-02-27T05:26:31;3.08;;;1.00;;
10056;SDS011;5068;51.286;7.518;2023-02-27T05:28:29;2.35;;;1.00;;
10056;SDS011;5068;51.286;7.518;2023-02-27T05:30:11;2.25;;;0.93;;
10056;SDS011;5068;51.286;7.518;2023-02-27T05:31:55;2.20;;;1.10;;
10056;SDS011;5068;51.286;7.518;2023-02-27T05:33:40;1.67;;;1.02;;
10056;SDS011;5068;51.286;7.518;2023-02-27T05:35:25;1.73;;;0.70;;
10056;SDS011;5068;51.286;7.518;2023-02-27T05:37:06;2.25;;;1.00;;
10056;SDS011;5068;51.286;7.518;2023-02-27T05:38:48;3.28;;;0.98;;
10056;SDS011;5068;51.286;7.518;2023-02-27T05:40:30;3.95;;;1.10;;
10056;SDS011;5068;51.286;7.518;2023-02-27T05:42:09;1.98;;;1.00;;
10056;SDS011;5068;51.286;7.518;2023-02-27T05:45:29;2.83;;;1.10;;
10056;SDS011;5068;51.286;7.518;2023-02-27T05:47:07;1.75;;;1.00;;
10056;SDS011;5068;51.286;7.518;2023-02-27T05:48:48;2.80;;;1.10;;
10056;SDS011;5068;51.286;7.518;2023-02-27T05:50:28;2.55;;;1.02;;
10056;SDS011;5068;51.286;7.518;2023-02-27T05:52:06;2.63;;;1.10;;
10056;SDS011;5068;51.286;7.518;2023-02-27T05:53:47;2.08;;;1.00;;
10056;SDS011;5068;51.286;7.518;2023-02-27T05:55:31;2.67;;;1.20;;
10056;SDS011;5068;51.286;7.518;2023-02-27T05:57:11;3.20;;;1.20;;
10056;SDS011;5068;51.286;7.518;2023-02-27T05:58:55;2.78;;;1.30;;
10056;SDS011;5068;51.286;7.518;2023-02-27T06:00:37;3.15;;;1.00;;
10056;SDS011;5068;51.286;7.518;2023-02-27T06:02:14;3.33;;;1.20;;
10056;SDS011;5068;51.286;7.518;2023-02-27T06:05:24;2.53;;;1.00;;
10056;SDS011;5068;51.286;7.518;2023-02-27T06:06:59;2.13;;;1.00;;
10056;SDS011;5068;51.286;7.518;2023-02-27T06:08:37;2.55;;;1.20;;
10056;SDS011;5068;51.286;7.518;2023-02-27T06:10:11;2.78;;;1.02;;
10056;SDS011;5068;51.286;7.518;2023-02-27T06:11:49;2.17;;;1.25;;
10056;SDS011;5068;51.286;7.518;2023-02-27T06:13:23;2.15;;;1.55;;
10056;SDS011;5068;51.286;7.518;2023-02-27T06:14:58;2.47;;;1.20;;
10056;SDS011;5068;51.286;7.518;2023-02-27T06:16:32;2.72;;;1.10;;
10056;SDS011;5068;51.286;7.518;2023-02-27T06:18:08;2.05;;;1.05;;
10056;SDS011;5068;51.286;7.518;2023-02-27T06:19:42;3.28;;;1.70;;
10056;SDS011;5068;51.286;7.518;2023-02-27T06:21:15;3.38;;;1.45;;
10056;SDS011;5068;51.286;7.518;2023-02-27T06:22:49;1.80;;;1.02;;
10056;SDS011;5068;51.286;7.518;2023-02-27T06:24:22;2.20;;;1.15;;
10056;SDS011;5068;51.286;7.518;2023-02-27T06:25:57;2.17;;;1.38;;
10056;SDS011;5068;51.286;7.518;2023-02-27T06:27:30;1.77;;;1.02;;
10056;SDS011;5068;51.286;7.518;2023-02-27T06:29:03;2.15;;;1.00;;
10056;SDS011;5068;51.286;7.518;2023-02-27T06:30:38;3.17;;;1.20;;
10056;SDS011;5068;51.286;7.518;2023-02-27T06:32:12;2.85;;;1.08;;
10056;SDS011;5068;51.286;7.518;2023-02-27T06:33:45;2.58;;;1.05;;
10056;SDS011;5068;51.286;7.518;2023-02-27T06:35:18;2.58;;;1.08;;
10056;SDS011;5068;51.286;7.518;2023-02-27T06:36:52;2.88;;;1.08;;
10056;SDS011;5068;51.286;7.518;2023-02-27T06:38:25;1.95;;;1.10;;
10056;SDS011;5068;51.286;7.518;2023-02-27T06:39:58;3.00;;;1.50;;
10056;SDS011;5068;51.286;7.518;2023-02-27T06:41:32;2.20;;;1.20;;
10056;SDS011;5068;51.286;7.518;2023-02-27T06:43:05;6.65;;;3.97;;
10056;SDS011;5068;51.286;7.518;2023-02-27T06:44:38;3.22;;;1.75;;
10056;SDS011;5068;51.286;7.518;2023-02-27T06:46:13;3.35;;;1.60;;
10056;SDS011;5068;51.286;7.518;2023-02-27T06:47:46;2.15;;;1.10;;
10056;SDS011;5068;51.286;7.518;2023-02-27T06:49:19;2.92;;;1.25;;
10056;SDS011;5068;51.286;7.518;2023-02-27T06:50:53;4.30;;;2.05;;
10056;SDS011;5068;51.286;7.518;2023-02-27T06:52:27;5.43;;;2.13;;
10056;SDS011;5068;51.286;7.518;2023-02-27T06:54:01;5.20;;;2.42;;
10056;SDS011;5068;51.286;7.518;2023-02-27T06:55:34;3.15;;;1.92;;
10056;SDS011;5068;51.286;7.518;2023-02-27T06:57:07;4.20;;;1.40;;
10056;SDS011;5068;51.286;7.518;2023-02-27T06:58:41;2.10;;;0.98;;
10056;SDS011;5068;51.286;7.518;2023-02-27T07:00:15;2.88;;;1.30;;
10056;SDS011;5068;51.286;7.518;2023-02-27T07:01:51;4.47;;;1.40;;
10056;SDS011;5068;51.286;7.518;2023-02-27T07:03:24;3.28;;;1.52;;
10056;SDS011;5068;51.286;7.518;2023-02-27T07:04:57;4.95;;;1.17;;
10056;SDS011;5068;51.286;7.518;2023-02-27T07:06:38;3.50;;;1.20;;
10056;SDS011;5068;51.286;7.518;2023-02-27T07:08:31;2.63;;;1.15;;
10056;SDS011;5068;51.286;7.518;2023-02-27T07:10:07;2.80;;;1.25;;
10056;SDS011;5068;51.286;7.518;2023-02-27T07:11:43;3.25;;;1.20;;
10056;SDS011;5068;51.286;7.518;2023-02-27T07:13:16;2.97;;;1.10;;
10056;SDS011;5068;51.286;7.518;2023-02-27T07:14:50;3.80;;;1.40;;
10056;SDS011;5068;51.286;7.518;2023-02-27T07:16:24;3.97;;;1.23;;
10056;SDS011;5068;51.286;7.518;2023-02-27T07:17:59;2.25;;;1.50;;
10056;SDS011;5068;51.286;7.518;2023-02-27T07:19:32;2.40;;;1.05;;
10056;SDS011;5068;51.286;7.518;2023-02-27T07:21:07;3.05;;;1.40;;
10056;SDS011;5068;51.286;7.518;2023-02-27T07:22:40;2.33;;;1.00;;
10056;SDS011;5068;51.286;7.518;2023-02-27T07:24:13;3.17;;;1.08;;
10056;SDS011;5068;51.286;7.518;2023-02-27T07:25:47;1.95;;;1.02;;
10056;SDS011;5068;51.286;7.518;2023-02-27T07:27:21;3.55;;;1.20;;
10056;SDS011;5068;51.286;7.518;2023-02-27T07:28:54;3.17;;;1.20;;
10056;SDS011;5068;51.286;7.518;2023-02-27T07:30:27;6.03;;;1.30;;
10056;SDS011;5068;51.286;7.518;2023-02-27T07:32:01;3.45;;;1.30;;
10056;SDS011;5068;51.286;7.518;2023-02-27T07:33:36;2.90;;;1.30;;
10056;SDS011;5068;51.286;7.518;2023-02-27T07:35:09;3.25;;;1.10;;
10056;SDS011;5068;51.286;7.518;2023-02-27T07:36:43;2.40;;;1.30;;
10056;SDS011;5068;51.286;7.518;2023-02-27T07:38:16;3.10;;;1.10;;
10056;SDS011;5068;51.286;7.518;2023-02-27T07:39:52;2.00;;;0.95;;
10056;SDS011;5068;51.286;7.518;2023-02-27T07:41:26;2.55;;;1.10;;
10056;SDS011;5068;51.286;7.518;2023-02-27T07:43:03;2.80;;;1.30;;
10056;SDS011;5068;51.286;7.518;2023-02-27T07:44:37;2.05;;;1.20;;
10056;SDS011;5068;51.286;7.518;2023-02-27T07:46:10;2.88;;;1.50;;
10056;SDS011;5068;51.286;7.518;2023-02-27T07:47:44;4.60;;;1.42;;
10056;SDS011;5068;51.286;7.518;2023-02-27T07:49:19;2.67;;;1.40;;
10056;SDS011;5068;51.286;7.518;2023-02-27T07:50:52;3.97;;;1.70;;
10056;SDS011;5068;51.286;7.518;2023-02-27T07:52:25;3.72;;;1.83;;
10056;SDS011;5068;51.286;7.518;2023-02-27T07:54:03;2.65;;;1.40;;
10056;SDS011;5068;51.286;7.518;2023-02-27T07:55:37;5.50;;;1.60;;
10056;SDS011;5068;51.286;7.518;2023-02-27T07:57:10;4.68;;;1.70;;
10056;SDS011;5068;51.286;7.518;2023-02-27T07:58:44;2.80;;;1.50;;
10056;SDS011;5068;51.286;7.518;2023-02-27T08:00:17;3.55;;;1.80;;
10056;SDS011;5068;51.286;7.518;2023-02-27T08:01:52;3.58;;;1.63;;
10056;SDS011;5068;51.286;7.518;2023-02-27T08:03:26;3.95;;;1.90;;
10056;SDS011;5068;51.286;7.518;2023-02-27T08:05:00;4.32;;;1.90;;
10056;SDS011;5068;51.286;7.518;2023-02-27T08:06:34;2.40;;;1.52;;
10056;SDS011;5068;51.286;7.518;2023-02-27T08:08:07;2.83;;;1.55;;
10056;SDS011;5068;51.286;7.518;2023-02-27T08:09:40;2.42;;;1.52;;
10056;SDS011;5068;51.286;7.518;2023-02-27T08:11:13;3.28;;;1.75;;
10056;SDS011;5068;51.286;7.518;2023-02-27T08:12:46;2.50;;;1.50;;
10056;SDS011;5068;51.286;7.518;2023-02-27T08:14:20;5.55;;;2.38;;
10056;SDS011;5068;51.286;7.518;2023-02-27T08:15:53;6.45;;;2.15;;
10056;SDS011;5068;51.286;7.518;2023-02-27T08:17:27;7.28;;;2.60;;
10056;SDS011;5068;51.286;7.518;2023-02-27T08:19:00;8.80;;;3.42;;
10056;SDS011;5068;51.286;7.518;2023-02-27T08:20:35;7.40;;;3.13;;
10056;SDS011;5068;51.286;7.518;2023-02-27T08:22:08;8.68;;;3.10;;
10056;SDS011;5068;51.286;7.518;2023-02-27T08:23:42;8.88;;;2.97;;
10056;SDS011;5068;51.286;7.518;2023-02-27T08:25:18;9.48;;;4.38;;
10056;SDS011;5068;51.286;7.518;2023-02-27T08:26:52;9.75;;;3.63;;
10056;SDS011;5068;51.286;7.518;2023-02-27T08:28:25;7.15;;;2.97;;
10056;SDS011;5068;51.286;7.518;2023-02-27T08:29:59;5.63;;;3.22;;
10056;SDS011;5068;51.286;7.518;2023-02-27T08:31:33;6.93;;;3.25;;
10056;SDS011;5068;51.286;7.518;2023-02-27T08:33:06;6.18;;;3.72;;
10056;SDS011;5068;51.286;7.518;2023-02-27T08:34:39;7.55;;;3.88;;
10056;SDS011;5068;51.286;7.518;2023-02-27T08:36:14;9.77;;;3.97;;
10056;SDS011;5068;51.286;7.518;2023-02-27T08:37:48;11.20;;;5.00;;
10056;SDS011;5068;51.286;7.518;2023-02-27T08:39:21;9.45;;;4.13;;
10056;SDS011;5068;51.286;7.518;2023-02-27T08:40:55;8.38;;;3.60;;
10056;SDS011;5068;51.286;7.518;2023-02-27T08:42:28;8.18;;;3.88;;
10056;SDS011;5068;51.286;7.518;2023-02-27T08:44:02;6.18;;;3.10;;
10056;SDS011;5068;51.286;7.518;2023-02-27T08:45:35;7.05;;;3.38;;
10056;SDS011;5068;51.286;7.518;2023-02-27T08:47:09;10.30;;;3.65;;
10056;SDS011;5068;51.286;7.518;2023-02-27T08:48:43;7.63;;;3.97;;
10056;SDS011;5068;51.286;7.518;2023-02-27T08:50:16;6.10;;;3.15;;
10056;SDS011;5068;51.286;7.518;2023-02-27T08:51:51;10.70;;;3.83;;
10056;SDS011;5068;51.286;7.518;2023-02-27T08:53:25;7.00;;;3.25;;
10056;SDS011;5068;51.286;7.518;2023-02-27T08:55:00;9.18;;;3.75;;
10056;SDS011;5068;51.286;7.518;2023-02-27T08:56:33;5.72;;;3.20;;
10056;SDS011;5068;51.286;7.518;2023-02-27T08:58:07;5.13;;;3.22;;
10056;SDS011;5068;51.286;7.518;2023-02-27T08:59:40;5.20;;;2.95;;
10056;SDS011;5068;51.286;7.518;2023-02-27T09:01:14;5.60;;;2.55;;
10056;SDS011;5068;51.286;7.518;2023-02-27T09:02:47;5.50;;;2.88;;
10056;SDS011;5068;51.286;7.518;2023-02-27T09:04:21;5.95;;;3.20;;
10056;SDS011;5068;51.286;7.518;2023-02-27T09:05:54;4.78;;;2.80;;
10056;SDS011;5068;51.286;7.518;2023-02-27T09:07:29;4.22;;;2.50;;
10056;SDS011;5068;51.286;7.518;2023-02-27T09:09:04;4.80;;;2.30;;
10056;SDS011;5068;51.286;7.518;2023-02-27T09:10:38;6.45;;;2.78;;
10056;SDS011;5068;51.286;7.518;2023-02-27T09:12:12;5.47;;;2.25;;
10056;SDS011;5068;51.286;7.518;2023-02-27T09:13:45;3.47;;;2.13;;
10056;SDS011;5068;51.286;7.518;2023-02-27T09:15:19;3.22;;;2.00;;
10056;SDS011;5068;51.286;7.518;2023-02-27T09:16:52;5.40;;;2.25;;
10056;SDS011;5068;51.286;7.518;2023-02-27T09:18:25;3.67;;;2.05;;
10056;SDS011;5068;51.286;7.518;2023-02-27T09:19:59;4.57;;;1.92;;
10056;SDS011;5068;51.286;7.518;2023-02-27T09:21:34;3.83;;;1.75;;
10056;SDS011;5068;51.286;7.518;2023-02-27T09:23:09;4.90;;;1.90;;
10056;SDS011;5068;51.286;7.518;2023-02-27T09:26:16;3.47;;;1.52;;
10056;SDS011;5068;51.286;7.518;2023-02-27T09:27:49;3.55;;;2.03;;
10056;SDS011;5068;51.286;7.518;2023-02-27T09:29:23;5.32;;;1.70;;
10056;SDS011;5068;51.286;7.518;2023-02-27T09:30:59;4.80;;;1.88;;
10056;SDS011;5068;51.286;7.518;2023-02-27T09:32:32;3.35;;;1.83;;
10056;SDS011;5068;51.286;7.518;2023-02-27T09:34:05;5.05;;;2.30;;
10056;SDS011;5068;51.286;7.518;2023-02-27T09:35:38;2.38;;;1.50;;
10056;SDS011;5068;51.286;7.518;2023-02-27T09:37:12;2.85;;;2.08;;
10056;SDS011;5068;51.286;7.518;2023-02-27T09:38:47;6.22;;;1.90;;
10056;SDS011;5068;51.286;7.518;2023-02-27T09:40:21;4.20;;;1.67;;
10056;SDS011;5068;51.286;7.518;2023-02-27T09:41:59;3.25;;;1.80;;
10056;SDS011;5068;51.286;7.518;2023-02-27T09:43:37;4.03;;;2.15;;
10056;SDS011;5068;51.286;7.518;2023-02-27T09:45:16;5.28;;;1.90;;
10056;SDS011;5068;51.286;7.518;2023-02-27T09:46:55;3.00;;;1.52;;
10056;SDS011;5068;51.286;7.518;2023-02-27T09:48:29;3.17;;;1.30;;
10056;SDS011;5068;51.286;7.518;2023-02-27T09:52:00;4.18;;;1.20;;
10056;SDS011;5068;51.286;7.518;2023-02-27T09:53:35;2.10;;;1.40;;
10056;SDS011;5068;51.286;7.518;2023-02-27T09:55:18;2.65;;;1.35;;
10056;SDS011;5068;51.286;7.518;2023-02-27T09:56:56;2.38;;;1.25;;
10056;SDS011;5068;51.286;7.518;2023-02-27T09:58:37;2.53;;;1.48;;
10056;SDS011;5068;51.286;7.518;2023-02-27T10:00:24;3.08;;;1.38;;
10056;SDS011;5068;51.286;7.518;2023-02-27T10:02:21;3.42;;;1.23;;
10056;SDS011;5068;51.286;7.518;2023-02-27T10:04:19;2.25;;;1.02;;
10056;SDS011;5068;51.286;7.518;2023-02-27T10:06:08;2.10;;;1.20;;
10056;SDS011;5068;51.286;7.518;2023-02-27T10:07:56;2.33;;;1.10;;
10056;SDS011;5068;51.286;7.518;2023-02-27T10:09:40;3.05;;;1.08;;
10056;SDS011;5068;51.286;7.518;2023-02-27T10:11:29;5.70;;;1.75;;
10056;SDS011;5068;51.286;7.518;2023-02-27T10:13:22;3.47;;;1.40;;
10056;SDS011;5068;51.286;7.518;2023-02-27T10:15:13;3.65;;;0.93;;